Time;durP1;ratioP1;P1;durP2;ratioP2;P2;SDS_P1;SDS_P2;PMS_P1;PMS_P2;Temp;Humidity;BMP_temperature;BMP_pressure;BME280_temperature;BME280_humidity;BME280_pressure;Samples;Min_cycle;Max_cycle;Signal;HPM_P1;HPM_P2
2022/12/07 00:02:08;;;;;;;11.93;8.48;;;;;;;2.20;100.00;101508.22;10417801;28;20098;-70
2022/12/07 00:07:09;;;;;;;16.30;8.38;;;;;;;2.12;100.00;101509.91;10418389;28;20057;-70
2022/12/07 00:12:12;;;;;;;11.05;7.28;;;;;;;2.01;100.00;101497.84;10417282;28;20406;-70
2022/12/07 00:17:14;;;;;;;10.75;7.53;;;;;;;1.92;100.00;101510.69;10417803;28;20478;-70
2022/12/07 00:22:16;;;;;;;10.50;7.70;;;;;;;1.74;100.00;101501.16;10416937;28;20120;-70
2022/12/07 00:27:19;;;;;;;13.63;8.23;;;;;;;1.65;100.00;101502.81;10415120;28;20319;-69
2022/12/07 00:32:21;;;;;;;15.55;7.80;;;;;;;1.53;100.00;101495.91;10417077;28;20117;-70
2022/12/07 00:37:22;;;;;;;10.97;7.53;;;;;;;1.47;100.00;101489.84;10416844;28;20079;-69
2022/12/07 00:42:25;;;;;;;11.37;7.60;;;;;;;1.45;100.00;101483.81;10417093;28;20313;-70
2022/12/07 00:47:27;;;;;;;9.10;7.28;;;;;;;1.43;100.00;101490.69;10417025;28;20584;-69
2022/12/07 00:52:29;;;;;;;11.90;7.70;;;;;;;1.46;100.00;101486.41;10416649;28;20090;-69
2022/12/07 00:57:32;;;;;;;11.63;7.70;;;;;;;1.43;100.00;101481.25;10414134;28;20336;-68
2022/12/07 01:02:34;;;;;;;35.10;9.13;;;;;;;1.38;100.00;101482.94;10415768;28;20091;-68
2022/12/07 01:07:36;;;;;;;16.45;9.75;;;;;;;1.47;100.00;101480.41;10415995;28;20130;-69
2022/12/07 01:12:39;;;;;;;14.10;7.35;;;;;;;1.50;100.00;101482.13;10415569;28;20062;-69
2022/12/07 01:17:41;;;;;;;12.77;7.55;;;;;;;1.49;100.00;101481.28;10415136;28;20420;-69
2022/12/07 01:22:44;;;;;;;9.30;7.83;;;;;;;1.46;100.00;101480.41;10415162;28;20107;-69
2022/12/07 01:27:47;;;;;;;12.10;6.35;;;;;;;1.38;100.00;101483.81;10412715;28;20311;-69
2022/12/07 01:32:49;;;;;;;11.30;7.05;;;;;;;1.42;100.00;101484.69;10415255;28;20116;-68
2022/12/07 01:37:51;;;;;;;8.05;6.60;;;;;;;1.45;100.00;101479.56;10414146;28;20076;-69
2022/12/07 01:42:54;;;;;;;19.77;8.60;;;;;;;1.55;100.00;101480.47;10414303;28;20064;-70
2022/12/07 01:47:59;;;;;;;15.25;8.52;;;;;;;1.66;100.00;101493.38;10414084;28;20308;-68
2022/12/07 01:53:05;;;;;;;13.45;9.18;;;;;;;1.86;100.00;101490.03;10414169;28;20123;-69
2022/12/07 01:58:08;;;;;;;13.82;8.48;;;;;;;1.86;100.00;101484.91;10411101;28;20085;-69
2022/12/07 02:03:18;;;;;;;22.75;8.05;;;;;;;1.83;100.00;101474.56;10413007;28;20624;-69
2022/12/07 02:08:21;;;;;;;17.95;8.18;;;;;;;1.88;100.00;101472.91;10413232;28;20130;-69
2022/12/07 02:13:28;;;;;;;15.63;9.07;;;;;;;1.85;100.00;101468.59;10413178;28;20118;-70
2022/12/07 02:18:49;;;;;;;9.13;7.32;;;;;;;1.69;100.00;101472.81;10412976;28;20054;-69
2022/12/07 02:24:38;;;;;;;11.45;8.18;;;;;;;1.67;100.00;101484.81;10412321;28;20060;-70
2022/12/07 02:29:50;;;;;;;9.05;7.30;;;;;;;1.59;100.00;101476.19;10410083;28;20071;-70
2022/12/07 02:35:03;;;;;;;9.07;6.78;;;;;;;1.59;100.00;101473.63;10412849;28;20541;-69
2022/12/07 02:40:17;;;;;;;10.82;6.25;;;;;;;1.60;100.00;101473.63;10412331;28;20062;-69
2022/12/07 02:45:26;;;;;;;9.70;5.82;;;;;;;1.42;100.00;101466.66;10411715;28;20103;-69
2022/12/07 02:50:29;;;;;;;10.05;6.68;;;;;;;1.33;100.00;101458.91;10411755;28;20412;-69
2022/12/07 02:55:40;;;;;;;13.80;5.85;;;;;;;1.23;100.00;101463.97;10412930;28;20109;-69
2022/12/07 03:00:55;;;;;;;10.10;6.68;;;;;;;1.37;100.00;101465.78;10409677;28;20437;-69
2022/12/07 03:06:13;;;;;;;12.85;5.93;;;;;;;1.44;100.00;101467.56;10412103;28;20071;-69
2022/12/07 03:11:26;;;;;;;10.20;6.97;;;;;;;1.60;100.00;101476.19;10411983;28;20063;-69
2022/12/07 03:16:35;;;;;;;10.75;6.32;;;;;;;1.72;100.00;101471.97;10411060;28;20090;-70
2022/12/07 03:21:43;;;;;;;8.07;5.75;;;;;;;1.58;100.00;101472.78;10411632;28;20500;-69
2022/12/07 03:26:52;;;;;;;14.68;6.85;;;;;;;1.49;100.00;101471.00;10408777;28;20061;-69
2022/12/07 03:32:05;;;;;;;9.95;5.72;;;;;;;1.50;100.00;101462.44;10411219;28;20117;-64
2022/12/07 03:37:16;;;;;;;10.85;5.80;;;;;;;1.46;100.00;101458.13;10410950;28;20077;-65
2022/12/07 03:42:18;;;;;;;17.33;7.25;;;;;;;1.56;100.00;101463.31;10410751;28;20118;-63
2022/12/07 03:47:30;;;;;;;7.78;6.53;;;;;;;1.76;100.00;101459.13;10410858;28;20400;-65
2022/12/07 03:52:41;;;;;;;18.63;6.75;;;;;;;1.81;100.00;101461.69;10410476;28;20136;-63
2022/12/07 03:57:47;;;;;;;8.05;5.95;;;;;;;1.79;100.00;101464.25;10414858;28;20080;-65
2022/12/07 04:02:52;;;;;;;7.68;5.65;;;;;;;1.87;100.00;101466.00;10417874;28;20566;-64
2022/12/07 04:07:54;;;;;;;11.38;6.35;;;;;;;1.88;100.00;101462.59;10418017;28;20059;-65
2022/12/07 04:12:56;;;;;;;14.43;5.63;;;;;;;1.90;100.00;101456.59;10418867;28;20068;-65
2022/12/07 04:18:00;;;;;;;11.93;5.43;;;;;;;1.91;100.00;101457.44;10417293;28;20827;-65
2022/12/07 04:23:02;;;;;;;7.03;5.07;;;;;;;1.94;100.00;101454.88;10417330;28;20509;-65
2022/12/07 04:28:04;;;;;;;7.95;6.53;;;;;;;2.01;100.00;101459.22;10415071;28;20057;-65
2022/12/07 04:33:08;;;;;;;11.50;5.60;;;;;;;2.04;100.00;101458.34;10417538;28;20111;-64
2022/12/07 04:38:10;;;;;;;7.38;6.00;;;;;;;2.05;100.00;101450.63;10417089;28;20077;-64
2022/12/07 04:43:11;;;;;;;13.05;6.45;;;;;;;2.06;100.00;101436.06;10416810;28;20477;-64
2022/12/07 04:48:15;;;;;;;9.50;5.80;;;;;;;2.09;100.00;101440.34;10416631;28;20064;-64
2022/12/07 04:53:17;;;;;;;18.13;6.68;;;;;;;2.14;100.00;101446.38;10416354;28;20310;-64
2022/12/07 04:58:19;;;;;;;9.38;6.80;;;;;;;2.20;100.00;101443.81;10413833;28;20559;-64
2022/12/07 05:03:22;;;;;;;17.07;7.33;;;;;;;2.32;100.00;101445.53;10416136;28;20402;-64
2022/12/07 05:08:24;;;;;;;16.83;7.70;;;;;;;2.36;100.00;101433.53;10415371;28;20370;-63
2022/12/07 05:13:25;;;;;;;12.25;6.03;;;;;;;2.30;100.00;101440.38;10416639;28;20058;-65
2022/12/07 05:18:28;;;;;;;16.67;6.63;;;;;;;2.26;100.00;101438.66;10415389;28;20077;-65
2022/12/07 05:23:30;;;;;;;9.32;5.95;;;;;;;2.25;100.00;101426.66;10415276;28;20063;-65
2022/12/07 05:28:32;;;;;;;13.37;6.00;;;;;;;2.25;100.00;101436.94;10412442;28;20410;-65
2022/12/07 05:33:35;;;;;;;15.90;5.45;;;;;;;2.22;100.00;101436.94;10414443;28;20471;-65
2022/12/07 05:38:36;;;;;;;9.30;4.97;;;;;;;2.16;100.00;101435.22;10414598;28;20487;-65
2022/12/07 05:43:38;;;;;;;8.68;5.25;;;;;;;2.12;100.00;101430.91;10414204;28;20056;-64
2022/12/07 05:48:41;;;;;;;7.18;4.38;;;;;;;1.99;100.00;101421.44;10414077;28;20566;-64
2022/12/07 05:53:43;;;;;;;10.60;4.97;;;;;;;1.80;100.00;101429.97;10413975;28;20100;-64
2022/12/07 06:04:07;;;;;;;4.40;4.07;;;;;;;1.54;100.00;101417.00;10413357;28;20514;-64
2022/12/07 06:09:08;;;;;;;6.38;3.33;;;;;;;1.48;100.00;101425.56;10413480;28;20108;-65
2022/12/07 06:14:11;;;;;;;11.90;3.70;;;;;;;1.44;100.00;101425.53;10413430;28;20067;-64
2022/12/07 06:19:14;;;;;;;15.00;5.18;;;;;;;1.35;100.00;101426.31;10412877;28;20062;-65
2022/12/07 06:24:18;;;;;;;16.17;4.65;;;;;;;1.26;100.00;101438.28;10413579;28;20062;-65
2022/12/07 06:29:20;;;;;;;6.55;3.45;;;;;;;1.25;100.00;101430.56;10410064;28;20133;-65
2022/12/07 06:34:27;;;;;;;13.05;5.57;;;;;;;1.28;100.00;101434.03;10412997;28;20069;-64
2022/12/07 06:39:30;;;;;;;6.82;4.10;;;;;;;1.52;100.00;101429.00;10412861;28;20507;-65
2022/12/07 06:44:32;;;;;;;9.40;3.58;;;;;;;1.46;100.00;101437.53;10412863;28;20056;-64
2022/12/07 06:49:35;;;;;;;10.32;6.07;;;;;;;1.51;100.00;101438.41;10412555;28;20063;-64
2022/12/07 06:54:37;;;;;;;10.20;5.20;;;;;;;1.53;100.00;101435.84;10411516;28;20116;-65
2022/12/07 06:59:39;;;;;;;7.10;4.20;;;;;;;1.52;100.00;101429.88;10408063;28;20471;-64
2022/12/07 07:04:42;;;;;;;9.83;5.27;;;;;;;1.52;100.00;101426.41;10410270;28;20336;-64
2022/12/07 07:09:44;;;;;;;12.75;4.72;;;;;;;1.47;100.00;101434.09;10410116;28;20724;-65
2022/12/07 07:14:45;;;;;;;8.63;4.28;;;;;;;1.47;100.00;101443.56;10407402;28;20079;-65
2022/12/07 07:19:48;;;;;;;15.40;5.32;;;;;;;1.39;100.00;101444.38;10407132;28;20063;-64
2022/12/07 07:24:50;;;;;;;9.13;5.65;;;;;;;1.44;100.00;101446.97;10409561;28;20092;-64
2022/12/07 07:29:52;;;;;;;13.90;5.15;;;;;;;1.45;100.00;101440.97;10413195;28;20478;-65
2022/12/07 07:34:56;;;;;;;10.20;5.57;;;;;;;1.46;100.00;101442.69;10419204;28;20508;-66
2022/12/07 07:39:58;;;;;;;12.93;5.45;;;;;;;1.47;100.00;101446.97;10419361;28;20061;-65
2022/12/07 07:45:01;;;;;;;16.53;5.33;;;;;;;1.49;100.00;101447.84;10417997;28;20110;-65
2022/12/07 07:50:06;;;;;;;7.10;4.82;;;;;;;1.50;100.00;101444.41;10420166;28;20312;-66
2022/12/07 07:55:09;;;;;;;12.75;4.75;;;;;;;1.48;100.00;101459.00;10416119;28;20069;-65
2022/12/07 08:00:15;;;;;;;16.98;5.18;;;;;;;1.53;100.00;101452.16;10415924;28;20552;-66
2022/12/07 08:05:18;;;;;;;5.03;4.25;;;;;;;1.59;100.00;101450.47;10417926;28;20113;-65
2022/12/07 08:10:20;;;;;;;13.20;4.75;;;;;;;1.54;100.00;101453.88;10417562;28;20496;-65
2022/12/07 08:15:21;;;;;;;10.60;5.80;;;;;;;1.52;100.00;101447.00;10416920;28;20132;-64
2022/12/07 08:20:25;;;;;;;6.63;5.32;;;;;;;1.43;100.00;101465.81;10417214;28;20435;-66
2022/12/07 08:25:29;;;;;;;8.82;5.20;;;;;;;1.34;100.00;101470.91;10417570;28;20437;-65
2022/12/07 08:30:31;;;;;;;16.60;7.35;;;;;;;1.34;100.00;101470.91;10415227;28;20059;-64
2022/12/07 08:35:35;;;;;;;18.38;5.35;;;;;;;1.48;100.00;101479.56;10417689;28;20085;-64
2022/12/07 08:40:38;;;;;;;11.95;6.85;;;;;;;1.66;100.00;101483.97;10415935;28;20406;-65
2022/12/07 08:45:41;;;;;;;15.45;6.05;;;;;;;1.96;100.00;101481.53;10416637;28;20568;-65
2022/12/07 08:50:46;;;;;;;10.65;5.95;;;;;;;2.14;100.00;101479.84;10418858;28;20479;-65
2022/12/07 08:55:49;;;;;;;14.63;6.70;;;;;;;2.25;100.00;101478.16;10416584;28;20079;-65
2022/12/07 09:00:51;;;;;;;13.70;6.03;;;;;;;2.41;100.00;101468.75;10413414;28;20495;-65
2022/12/07 09:05:55;;;;;;;10.95;5.05;;;;;;;2.54;100.00;101469.63;10415655;28;20150;-65
2022/12/07 09:10:59;;;;;;;12.93;5.93;;;;;;;2.56;100.00;101465.34;10415771;28;20064;-65
2022/12/07 09:16:00;;;;;;;17.60;5.95;;;;;;;2.70;100.00;101465.34;10415762;28;20096;-65
2022/12/07 09:21:05;;;;;;;10.27;5.85;;;;;;;2.87;100.00;101469.63;10416497;28;20497;-66
2022/12/07 09:26:07;;;;;;;6.85;4.93;;;;;;;3.04;100.00;101471.34;10412722;28;20053;-66
2022/12/07 09:31:08;;;;;;;5.00;4.47;;;;;;;3.03;100.00;101462.75;10415034;28;20053;-64
2022/12/07 09:36:11;;;;;;;5.97;4.65;;;;;;;3.02;100.00;101461.06;10414780;28;20342;-72
2022/12/07 09:41:15;;;;;;;13.27;4.68;;;;;;;2.90;100.00;101469.66;10412762;28;20045;-72
2022/12/07 09:46:21;;;;;;;11.48;5.05;;;;;;;2.89;100.00;101469.63;10413976;28;20468;-71
2022/12/07 09:51:25;;;;;;;10.30;5.22;;;;;;;2.95;100.00;101464.50;10412942;28;20427;-71
2022/12/07 09:56:30;;;;;;;9.25;6.72;;;;;;;4.12;100.00;101471.91;10411200;28;20057;-72
2022/12/07 10:01:34;;;;;;;9.60;7.40;;;;;;;6.16;100.00;101471.75;10412626;28;20088;-72
2022/12/07 10:06:37;;;;;;;8.57;5.75;;;;;;;7.08;100.00;101462.53;10413373;28;20049;-73
2022/12/07 10:12:08;;;;;;;8.65;4.18;;;;;;;5.88;100.00;101457.38;10413151;28;20107;-78
2022/12/07 10:17:33;;;;;;;5.03;3.78;;;;;;;5.56;100.00;101450.88;10412723;28;20075;-79
2022/12/07 10:22:36;;;;;;;5.70;3.92;;;;;;;5.17;100.00;101442.66;10413851;28;20080;-78
2022/12/07 10:27:37;;;;;;;5.53;3.17;;;;;;;6.64;100.00;101442.50;10409928;28;20489;-63
2022/12/07 10:32:39;;;;;;;5.38;3.67;;;;;;;6.88;100.00;101434.34;10412347;28;20069;-63
2022/12/07 10:37:42;;;;;;;6.15;3.95;;;;;;;7.90;100.00;101426.31;10411795;28;20609;-63
2022/12/07 10:43:02;;;;;;;9.63;3.53;;;;;;;6.42;100.00;101423.84;10411521;28;20071;-63
2022/12/07 10:48:14;;;;;;;8.30;3.42;;;;;;;5.76;100.00;101419.56;10411955;28;20045;-74
2022/12/07 10:54:04;;;;;;;7.78;2.78;;;;;;;7.04;100.00;101414.16;10411874;28;20053;-72
2022/12/07 10:59:39;;;;;;;12.82;4.68;;;;;;;5.76;100.00;101410.94;10407203;28;20045;-62
2022/12/07 11:04:56;;;;;;;7.15;3.45;;;;;;;6.56;100.00;101402.88;10409512;28;20186;-63
2022/12/07 11:10:13;;;;;;;5.88;2.80;;;;;;;6.66;100.00;101388.88;10411028;28;20189;-63
2022/12/07 11:15:22;;;;;;;5.63;2.40;;;;;;;5.93;100.00;101387.38;10411812;28;20045;-63
2022/12/07 11:20:44;;;;;;;9.52;3.45;;;;;;;5.31;100.00;101388.16;10411281;28;20136;-63
2022/12/07 11:25:58;;;;;;;4.00;2.95;;;;;;;5.30;100.00;101376.94;10411230;28;20069;-64
2022/12/07 11:31:14;;;;;;;9.13;3.00;;;;;;;5.26;100.00;101377.88;10409815;28;20048;-63
2022/12/07 11:36:35;;;;;;;6.72;2.90;;;;;;;5.25;100.00;101369.25;10411065;28;20553;-63
2022/12/07 11:41:43;;;;;;;4.05;2.80;;;;;;;5.18;100.00;101362.44;10411866;28;20053;-63
2022/12/07 11:46:52;;;;;;;5.70;3.10;;;;;;;5.26;100.00;101362.34;10411260;28;20050;-63
2022/12/07 11:52:00;;;;;;;8.10;3.13;;;;;;;5.24;100.00;101357.19;10410646;28;20071;-63
2022/12/07 11:57:13;;;;;;;5.45;2.63;;;;;;;5.05;100.00;101361.72;10408268;28;20050;-63
2022/12/07 12:02:23;;;;;;;7.38;2.53;;;;;;;5.05;100.00;101355.66;10411038;28;20088;-63
2022/12/07 12:07:28;;;;;;;7.40;2.75;;;;;;;4.88;100.00;101349.81;10411015;28;20045;-64
2022/12/07 12:13:03;;;;;;;5.82;2.50;;;;;;;4.66;100.00;101343.16;10410306;28;20416;-64
2022/12/07 12:18:49;;;;;;;4.05;2.05;;;;;;;4.64;100.00;101346.63;10415467;28;20049;-63
2022/12/07 12:24:00;;;;;;;4.65;1.80;;;;;;;4.84;100.00;101335.22;10417098;28;20164;-63
2022/12/07 12:29:08;;;;;;;3.55;1.73;;;;;;;5.19;100.00;101329.63;10415378;28;20053;-63
2022/12/07 12:34:41;;;;;;;3.55;1.60;;;;;;;5.52;100.00;101324.91;10416414;28;20577;-63
2022/12/07 12:40:32;;;;;;;;;;;;;;;5.63;100.00;101312.69;10414214;28;20075;-63
2022/12/07 12:45:36;;;;;;;2.38;1.52;;;;;;;6.33;100.00;101299.56;10385642;28;19967;-63
2022/12/07 12:50:39;;;;;;;5.93;1.70;;;;;;;6.73;100.00;101300.56;10416667;28;20421;-63
2022/12/07 12:56:36;;;;;;;3.72;1.65;;;;;;;6.00;100.00;101306.09;10415806;28;20055;-63
2022/12/07 13:01:44;;;;;;;4.45;1.70;;;;;;;5.67;100.00;101292.78;10416139;28;20083;-62
2022/12/07 13:06:47;;;;;;;5.93;1.60;;;;;;;5.27;100.00;101284.69;10416116;28;20069;-62
2022/12/07 13:11:56;;;;;;;4.35;1.60;;;;;;;5.12;100.00;101284.88;10416348;28;20535;-63
2022/12/07 13:16:59;;;;;;;7.43;1.80;;;;;;;5.02;100.00;101281.53;10416329;28;20087;-63
2022/12/07 13:22:01;;;;;;;5.90;1.63;;;;;;;4.92;100.00;101277.38;10415641;28;20069;-63
2022/12/07 13:27:10;;;;;;;2.08;1.90;;;;;;;4.90;100.00;101273.06;10412700;28;20577;-64
2022/12/07 13:32:26;;;;;;;5.05;1.67;;;;;;;4.92;100.00;101267.88;10414909;28;20053;-63
2022/12/07 13:37:30;;;;;;;3.45;2.00;;;;;;;5.05;100.00;101266.00;10414695;28;20079;-64
2022/12/07 13:42:35;;;;;;;2.08;1.83;;;;;;;6.09;100.00;101258.47;10414575;28;20130;-64
2022/12/07 13:47:49;;;;;;;3.95;2.33;;;;;;;6.64;100.00;101254.91;10414018;28;20049;-64
2022/12/07 13:52:51;;;;;;;4.85;1.83;;;;;;;5.92;100.00;101249.22;10410526;28;20552;-64
2022/12/07 13:57:58;;;;;;;2.55;1.77;;;;;;;5.38;100.00;101245.69;10411386;28;20045;-63
2022/12/07 14:03:04;;;;;;;2.90;1.92;;;;;;;5.16;100.00;101245.16;10413587;28;20053;-63
2022/12/07 14:08:24;;;;;;;2.13;1.80;;;;;;;5.06;100.00;101244.41;10413257;28;20472;-65
2022/12/07 14:13:33;;;;;;;8.07;2.13;;;;;;;4.82;100.00;101235.25;10414006;28;20056;-63
2022/12/07 14:18:41;;;;;;;7.82;4.47;;;;;;;4.66;100.00;101229.38;10413361;28;20045;-63
2022/12/07 14:23:43;;;;;;;4.95;2.40;;;;;;;4.74;100.00;101227.56;10412997;28;20501;-63
2022/12/07 14:28:45;;;;;;;4.32;2.83;;;;;;;4.78;100.00;101208.53;10410498;28;20049;-64
2022/12/07 14:33:48;;;;;;;;;;;;;;;4.62;100.00;101219.06;10412973;28;20546;-65
2022/12/07 14:38:53;;;;;;;2.75;2.40;;;;;;;4.47;100.00;101214.06;10412199;28;19968;-64
2022/12/07 14:43:54;;;;;;;8.68;4.03;;;;;;;4.42;100.00;101210.69;10412032;28;20420;-64
2022/12/07 14:48:58;;;;;;;9.77;5.07;;;;;;;4.40;100.00;101208.13;10411935;28;20320;-64
2022/12/07 14:53:59;;;;;;;5.05;2.78;;;;;;;4.35;100.00;101210.75;10412187;28;20049;-65
2022/12/07 14:59:02;;;;;;;3.85;2.25;;;;;;;4.27;100.00;101207.38;10409100;28;20091;-63
2022/12/07 15:04:06;;;;;;;2.97;2.35;;;;;;;4.24;100.00;101207.41;10411546;28;20096;-63
2022/12/07 15:09:07;;;;;;;4.55;3.58;;;;;;;4.25;100.00;101203.97;10411871;28;20560;-64
2022/12/07 15:14:10;;;;;;;4.55;2.63;;;;;;;4.18;100.00;101190.25;10412091;28;20112;-64
2022/12/07 15:19:18;;;;;;;2.22;2.05;;;;;;;4.08;100.00;101194.66;10411368;28;20053;-64
2022/12/07 15:24:21;;;;;;;2.90;2.13;;;;;;;3.88;100.00;101194.84;10411529;28;20060;-64
2022/12/07 15:29:23;;;;;;;2.00;1.90;;;;;;;3.71;100.00;101192.41;10409390;28;20071;-65
2022/12/07 15:34:28;;;;;;;2.47;2.05;;;;;;;3.72;100.00;101194.09;10411330;28;20100;-65
2022/12/07 15:39:30;;;;;;;2.17;2.00;;;;;;;3.63;100.00;101194.19;10411542;28;20172;-65
2022/12/07 15:49:52;;;;;;;6.18;2.67;;;;;;;3.53;100.00;101189.13;10412930;28;20055;-66
2022/12/07 15:54:54;;;;;;;6.00;2.97;;;;;;;3.57;100.00;101185.63;10418793;28;20123;-66
2022/12/07 15:59:56;;;;;;;2.17;2.08;;;;;;;3.51;100.00;101177.94;10416499;28;20053;-64
2022/12/07 16:04:59;;;;;;;2.65;2.45;;;;;;;3.43;100.00;101177.13;10418287;28;20108;-65
2022/12/07 16:10:01;;;;;;;3.97;2.70;;;;;;;3.40;100.00;101166.81;10417812;28;20119;-65
2022/12/07 16:15:02;;;;;;;2.88;2.28;;;;;;;3.34;100.00;101171.16;10418354;28;20090;-66
2022/12/07 16:20:09;;;;;;;5.70;2.78;;;;;;;3.32;100.00;101175.47;10418238;28;20050;-65
2022/12/07 16:25:12;;;;;;;2.92;2.40;;;;;;;3.31;100.00;101170.31;10418257;28;20056;-65
2022/12/07 16:30:16;;;;;;;8.18;5.22;;;;;;;3.28;100.00;101160.88;10415670;28;20057;-65
2022/12/07 16:35:19;;;;;;;7.32;4.70;;;;;;;3.29;100.00;101160.00;10416145;28;20131;-65
2022/12/07 16:40:20;;;;;;;4.40;3.08;;;;;;;3.27;100.00;101148.84;10415806;28;20162;-65
2022/12/07 16:45:22;;;;;;;5.47;2.83;;;;;;;3.27;100.00;101150.56;10415802;28;20075;-65
2022/12/07 16:50:25;;;;;;;4.75;2.42;;;;;;;3.26;100.00;101147.16;10415242;28;20100;-65
2022/12/07 16:55:27;;;;;;;13.60;3.22;;;;;;;3.23;100.00;101139.44;10414893;28;20515;-65
2022/12/07 17:00:29;;;;;;;5.15;2.60;;;;;;;3.21;100.00;101141.16;10411558;28;20090;-65
2022/12/07 17:05:32;;;;;;;4.00;2.75;;;;;;;3.19;100.00;101137.75;10415053;28;20493;-65
2022/12/07 17:10:36;;;;;;;7.82;3.30;;;;;;;3.16;100.00;101128.31;10414712;28;20114;-65
2022/12/07 17:15:37;;;;;;;6.70;2.45;;;;;;;3.17;100.00;101129.16;10414602;28;20073;-64
2022/12/07 17:20:40;;;;;;;4.37;2.97;;;;;;;3.15;100.00;101128.31;10413869;28;20103;-65
2022/12/07 17:25:42;;;;;;;4.78;3.00;;;;;;;3.16;100.00;101124.84;10414454;28;20306;-64
2022/12/07 17:30:44;;;;;;;3.90;2.80;;;;;;;3.08;100.00;101120.59;10411370;28;20103;-65
2022/12/07 17:35:47;;;;;;;5.55;2.42;;;;;;;3.05;100.00;101112.88;10414291;28;20828;-66
2022/12/07 17:40:49;;;;;;;5.35;3.22;;;;;;;2.99;100.00;101110.38;10412908;28;20485;-67
2022/12/07 17:45:52;;;;;;;4.85;2.90;;;;;;;2.96;100.00;101111.25;10412878;28;20489;-64
2022/12/07 17:56:19;;;;;;;3.15;2.42;;;;;;;2.94;100.00;101096.63;10409982;28;20058;-66
2022/12/07 18:01:21;;;;;;;2.80;2.50;;;;;;;2.95;100.00;101095.78;10412193;28;20104;-66
2022/12/07 18:06:25;;;;;;;7.45;4.38;;;;;;;2.94;100.00;101096.63;10412580;28;20306;-66
2022/12/07 18:11:27;;;;;;;11.55;6.65;;;;;;;2.95;100.00;101088.03;10412681;28;20051;-66
2022/12/07 18:16:33;;;;;;;9.45;3.95;;;;;;;2.96;100.00;101084.59;10411250;28;20118;-66
2022/12/07 18:21:36;;;;;;;4.95;2.97;;;;;;;2.96;100.00;101082.00;10411550;28;20057;-66
2022/12/07 18:26:37;;;;;;;3.47;2.55;;;;;;;2.92;100.00;101088.94;10408879;28;20126;-66
2022/12/07 18:31:41;;;;;;;4.63;2.33;;;;;;;2.91;100.00;101083.78;10412211;28;20511;-66
2022/12/07 18:36:48;;;;;;;3.03;2.08;;;;;;;2.86;100.00;101072.63;10410889;28;20126;-66
2022/12/07 18:41:51;;;;;;;2.78;1.75;;;;;;;2.75;100.00;101064.97;10410791;28;20425;-66
2022/12/07 18:46:53;;;;;;;4.65;2.00;;;;;;;2.66;100.00;101055.56;10410681;28;20573;-65
2022/12/07 18:51:56;;;;;;;3.13;2.42;;;;;;;2.60;100.00;101060.75;10411345;28;20091;-65
2022/12/07 18:56:58;;;;;;;5.07;3.35;;;;;;;2.57;100.00;101057.31;10408525;28;20080;-65
2022/12/07 19:02:01;;;;;;;2.90;2.43;;;;;;;2.56;100.00;101063.34;10410060;28;20084;-68
2022/12/07 19:07:04;;;;;;;4.82;2.80;;;;;;;2.50;100.00;101054.81;10410882;28;20377;-66
2022/12/07 19:12:06;;;;;;;9.35;2.53;;;;;;;2.46;100.00;101058.25;10410202;28;20472;-66
2022/12/07 19:17:11;;;;;;;4.38;2.45;;;;;;;2.45;100.00;101057.41;10410507;28;20067;-66
2022/12/07 19:22:17;;;;;;;6.13;3.00;;;;;;;2.41;100.00;101047.97;10409822;28;20420;-66
2022/12/07 19:27:20;;;;;;;3.60;3.00;;;;;;;2.34;100.00;101047.16;10414689;28;20493;-66
2022/12/07 19:32:22;;;;;;;3.42;3.05;;;;;;;2.30;100.00;101046.28;10418186;28;20387;-66
2022/12/07 19:37:25;;;;;;;6.30;3.65;;;;;;;2.25;100.00;101050.63;10418620;28;20089;-66
2022/12/07 19:42:26;;;;;;;10.45;4.18;;;;;;;2.21;100.00;101054.06;10418288;28;20057;-66
2022/12/07 19:47:28;;;;;;;3.88;3.50;;;;;;;2.19;100.00;101046.34;10417720;28;20063;-66
2022/12/07 19:52:32;;;;;;;4.10;3.55;;;;;;;2.21;100.00;101036.03;10417267;28;20079;-67
2022/12/07 19:57:34;;;;;;;6.10;4.18;;;;;;;2.24;100.00;101043.75;10415115;28;20084;-65
2022/12/07 20:02:36;;;;;;;4.50;4.10;;;;;;;2.27;100.00;101036.03;10416823;28;20088;-66
2022/12/07 20:07:40;;;;;;;4.07;3.40;;;;;;;2.31;100.00;101027.41;10416934;28;20308;-65
2022/12/07 20:18:01;;;;;;;5.82;3.53;;;;;;;2.41;100.00;101017.94;10416550;28;20072;-66
2022/12/07 20:23:05;;;;;;;3.63;3.43;;;;;;;2.45;100.00;101026.47;10416331;28;20541;-65
2022/12/07 20:28:07;;;;;;;4.93;4.28;;;;;;;2.47;100.00;101019.63;10413936;28;20315;-64
2022/12/07 20:33:08;;;;;;;6.00;3.55;;;;;;;2.45;100.00;101013.59;10416279;28;20064;-65
2022/12/07 20:38:13;;;;;;;4.75;3.47;;;;;;;2.46;100.00;101012.72;10414416;28;20078;-66
2022/12/07 20:43:16;;;;;;;7.40;3.88;;;;;;;2.46;100.00;101005.00;10415967;28;20103;-66
2022/12/07 20:48:18;;;;;;;4.20;3.80;;;;;;;2.46;100.00;100999.00;10415440;28;20060;-65
2022/12/07 20:53:22;;;;;;;3.37;3.00;;;;;;;2.43;100.00;100987.84;10415292;28;20062;-66
2022/12/07 20:58:25;;;;;;;5.45;4.57;;;;;;;2.46;100.00;100989.53;10412868;28;20340;-66
2022/12/07 21:03:27;;;;;;;3.50;3.05;;;;;;;2.47;100.00;100982.69;10414840;28;20546;-66
2022/12/07 21:08:30;;;;;;;4.35;3.40;;;;;;;2.43;100.00;100979.28;10414494;28;20614;-66
2022/12/07 21:13:32;;;;;;;3.55;3.10;;;;;;;2.39;100.00;100981.00;10414023;28;20060;-66
2022/12/07 21:18:33;;;;;;;3.70;3.50;;;;;;;2.37;100.00;100981.88;10414203;28;20482;-67
2022/12/07 21:23:38;;;;;;;3.00;2.80;;;;;;;2.35;100.00;100974.16;10414375;28;20860;-67
2022/12/07 21:28:40;;;;;;;6.43;3.58;;;;;;;2.33;100.00;100969.88;10411532;28;20317;-66
2022/12/07 21:33:44;;;;;;;3.75;3.55;;;;;;;2.31;100.00;100963.03;10414381;28;20064;-67
2022/12/07 21:38:48;;;;;;;8.35;4.68;;;;;;;2.31;100.00;100957.00;10415067;28;20123;-67
2022/12/07 21:43:50;;;;;;;4.70;4.38;;;;;;;2.30;100.00;100951.00;10414676;28;20107;-70
2022/12/07 21:48:55;;;;;;;5.43;4.97;;;;;;;2.30;100.00;100950.16;10415060;28;20059;-68
2022/12/07 21:54:00;;;;;;;8.93;5.68;;;;;;;2.30;100.00;100948.41;10414218;28;20108;-68
2022/12/07 21:59:06;;;;;;;7.05;6.55;;;;;;;2.31;100.00;100950.16;10411563;28;20488;-68
2022/12/07 22:04:11;;;;;;;8.95;8.15;;;;;;;2.31;100.00;100952.72;10413359;28;20107;-66
2022/12/07 22:09:16;;;;;;;9.23;8.25;;;;;;;2.35;100.00;100947.53;10413939;28;20049;-66
2022/12/07 22:19:39;;;;;;;11.75;11.00;;;;;;;2.40;100.00;100935.50;10412997;28;20077;-66
2022/12/07 22:24:43;;;;;;;10.68;9.82;;;;;;;2.39;100.00;100928.66;10412960;28;20521;-67
2022/12/07 22:29:48;;;;;;;13.82;12.88;;;;;;;2.39;100.00;100928.66;10410991;28;20066;-74
2022/12/07 22:34:50;;;;;;;13.82;12.43;;;;;;;2.38;100.00;100924.34;10413105;28;20056;-67
2022/12/07 22:39:54;;;;;;;15.47;13.87;;;;;;;2.37;100.00;100912.34;10412499;28;20086;-67
2022/12/07 22:44:56;;;;;;;15.68;14.20;;;;;;;2.38;100.00;100906.31;10412512;28;20329;-65
2022/12/07 22:49:59;;;;;;;17.03;15.43;;;;;;;2.37;100.00;100899.44;10412286;28;20116;-67
2022/12/07 22:55:02;;;;;;;21.38;19.73;;;;;;;2.34;100.00;100889.16;10412075;28;20337;-67
2022/12/07 23:00:07;;;;;;;16.13;14.80;;;;;;;2.30;100.00;100875.47;10408735;28;20571;-65
2022/12/07 23:05:10;;;;;;;20.70;18.48;;;;;;;2.27;100.00;100863.47;10411753;28;20071;-69
2022/12/07 23:10:13;;;;;;;19.73;17.75;;;;;;;2.28;100.00;100857.44;10412405;28;20078;-66
2022/12/07 23:15:15;;;;;;;18.55;16.55;;;;;;;2.23;100.00;100861.78;10411928;28;20132;-66
2022/12/07 23:20:17;;;;;;;22.42;17.70;;;;;;;2.22;100.00;100854.91;10411658;28;20079;-65
2022/12/07 23:25:20;;;;;;;20.23;18.00;;;;;;;2.15;100.00;100850.66;10411881;28;20062;-69
2022/12/07 23:30:22;;;;;;;21.58;19.40;;;;;;;2.11;100.00;100843.81;10409310;28;20119;-67
2022/12/07 23:35:24;;;;;;;26.65;23.15;;;;;;;2.07;100.00;100850.72;10412129;28;20127;-66
2022/12/07 23:40:27;;;;;;;18.73;16.88;;;;;;;1.99;100.00;100839.63;10411136;28;20073;-68
2022/12/07 23:45:28;;;;;;;19.17;17.33;;;;;;;1.96;100.00;100837.94;10411427;28;20557;-67